createdAt,value
2023-05-20T00:01:51.099Z,8.93
2023-05-20T00:04:18.494Z,7.68
2023-05-20T00:06:46.035Z,8.52
2023-05-20T00:09:13.379Z,7.22
2023-05-20T00:11:40.879Z,7.90
2023-05-20T00:14:08.196Z,10.95
2023-05-20T00:16:35.753Z,8.50
2023-05-20T00:19:03.697Z,8.57
2023-05-20T00:21:31.381Z,7.82
2023-05-20T00:23:58.746Z,10.35
2023-05-20T00:26:26.846Z,7.95
2023-05-20T00:28:56.136Z,8.50
2023-05-20T00:31:23.458Z,8.60
2023-05-20T00:33:51.013Z,7.50
2023-05-20T00:36:18.234Z,7.45
2023-05-20T00:38:45.628Z,9.20
2023-05-20T00:41:13.020Z,8.70
2023-05-20T00:43:40.320Z,7.40
2023-05-20T00:46:08.099Z,7.90
2023-05-20T00:48:43.828Z,9.65
2023-05-20T00:51:13.052Z,9.35
2023-05-20T00:53:41.616Z,8.13
2023-05-20T00:56:09.586Z,8.40
2023-05-20T00:58:39.316Z,7.53
2023-05-20T01:01:06.975Z,9.35
2023-05-20T01:03:35.052Z,7.82
2023-05-20T01:06:03.401Z,7.35
2023-05-20T01:08:30.839Z,7.57
2023-05-20T01:11:09.000Z,8.38
2023-05-20T01:13:45.826Z,9.80
2023-05-20T01:16:18.136Z,9.20
2023-05-20T01:18:48.740Z,8.32
2023-05-20T01:21:17.464Z,8.35
2023-05-20T01:23:44.744Z,8.32
2023-05-20T01:26:15.004Z,9.27
2023-05-20T01:28:45.612Z,8.60
2023-05-20T01:31:30.148Z,9.27
2023-05-20T01:33:58.761Z,8.43
2023-05-20T01:36:27.846Z,8.18
2023-05-20T01:38:56.307Z,7.60
2023-05-20T01:41:27.021Z,8.10
2023-05-20T01:43:56.297Z,9.60
2023-05-20T01:46:23.725Z,8.07
2023-05-20T01:48:51.305Z,8.15
2023-05-20T01:51:18.786Z,9.00
2023-05-20T01:53:46.091Z,7.75
2023-05-20T01:56:13.737Z,9.43
2023-05-20T01:58:41.228Z,8.30
2023-05-20T02:01:10.020Z,7.78
2023-05-20T02:03:37.423Z,9.18
2023-05-20T02:06:04.783Z,8.82
2023-05-20T02:08:32.161Z,8.48
2023-05-20T02:11:00.433Z,8.45
2023-05-20T02:13:28.448Z,8.82
2023-05-20T02:15:56.059Z,8.20
2023-05-20T02:18:26.699Z,8.75
2023-05-20T02:20:54.129Z,10.45
2023-05-20T02:23:21.411Z,11.52
2023-05-20T02:25:49.036Z,8.32
2023-05-20T02:28:16.892Z,10.90
2023-05-20T02:30:44.299Z,8.90
2023-05-20T02:33:12.445Z,9.38
2023-05-20T02:35:40.500Z,9.13
2023-05-20T02:38:07.900Z,8.93
2023-05-20T02:40:37.349Z,8.80
2023-05-20T02:43:04.649Z,9.23
2023-05-20T02:45:34.737Z,8.93
2023-05-20T02:48:02.332Z,9.70
2023-05-20T02:50:31.654Z,10.10
2023-05-20T02:52:59.063Z,10.30
2023-05-20T02:55:26.509Z,10.85
2023-05-20T02:57:54.149Z,8.70
2023-05-20T03:00:23.406Z,10.50
2023-05-20T03:02:50.672Z,9.88
2023-05-20T03:05:18.155Z,11.98
2023-05-20T03:07:46.536Z,9.23
2023-05-20T03:10:15.627Z,11.00
2023-05-20T03:12:43.456Z,9.52
2023-05-20T03:15:11.529Z,10.88
2023-05-20T03:17:39.089Z,9.57
2023-05-20T03:20:07.649Z,10.68
2023-05-20T03:22:35.098Z,10.98
2023-05-20T03:25:02.510Z,8.60
2023-05-20T03:27:32.290Z,10.07
2023-05-20T03:29:59.834Z,9.23
2023-05-20T03:32:27.387Z,11.45
2023-05-20T03:34:54.767Z,9.90
2023-05-20T03:37:22.136Z,10.57
2023-05-20T03:39:49.497Z,10.30
2023-05-20T03:42:17.086Z,9.65
2023-05-20T03:44:44.424Z,13.40
2023-05-20T03:47:11.828Z,10.82
2023-05-20T03:49:41.183Z,9.70
2023-05-20T03:52:08.536Z,9.40
2023-05-20T03:54:36.839Z,10.38
2023-05-20T03:57:05.935Z,10.15
2023-05-20T03:59:33.425Z,9.50
2023-05-20T04:02:00.815Z,8.57
2023-05-20T04:04:28.475Z,11.45
2023-05-20T04:06:56.428Z,11.18
2023-05-20T04:09:24.494Z,9.77
2023-05-20T04:11:53.588Z,10.77
2023-05-20T04:14:21.344Z,10.70
2023-05-20T04:16:50.434Z,10.93
2023-05-20T04:19:19.866Z,10.07
2023-05-20T04:21:47.216Z,10.50
2023-05-20T04:24:14.953Z,10.00
2023-05-20T04:26:43.358Z,13.35
2023-05-20T04:29:12.096Z,12.18
2023-05-20T04:31:39.613Z,11.88
2023-05-20T04:34:08.802Z,11.77
2023-05-20T04:36:38.314Z,13.80
2023-05-20T04:39:05.728Z,11.75
2023-05-20T04:41:33.116Z,11.52
2023-05-20T04:44:02.067Z,11.60
2023-05-20T04:46:31.786Z,11.18
2023-05-20T04:48:59.284Z,12.70
2023-05-20T04:51:26.810Z,14.52
2023-05-20T04:53:54.205Z,13.65
2023-05-20T04:56:21.585Z,12.25
2023-05-20T04:58:49.217Z,12.38
2023-05-20T05:01:16.791Z,12.93
2023-05-20T05:03:44.108Z,11.40
2023-05-20T05:06:11.770Z,13.73
2023-05-20T05:08:39.193Z,11.05
2023-05-20T05:11:07.346Z,15.48
2023-05-20T05:13:34.805Z,11.95
2023-05-20T05:16:03.299Z,12.82
2023-05-20T05:18:32.182Z,13.60
2023-05-20T05:21:03.067Z,12.82
2023-05-20T05:23:30.882Z,12.65
2023-05-20T05:25:58.435Z,12.30
2023-05-20T05:28:26.125Z,13.35
2023-05-20T05:30:56.406Z,17.38
2023-05-20T05:33:23.805Z,17.83
2023-05-20T05:35:51.772Z,13.52
2023-05-20T05:38:19.043Z,13.38
2023-05-20T05:40:47.403Z,12.80
2023-05-20T05:43:15.665Z,14.50
2023-05-20T05:45:43.381Z,12.85
2023-05-20T05:48:11.623Z,11.85
2023-05-20T05:50:39.478Z,15.25
2023-05-20T05:53:06.985Z,12.63
2023-05-20T05:55:37.131Z,11.38
2023-05-20T05:58:04.453Z,12.95
2023-05-20T06:00:31.940Z,12.85
2023-05-20T06:02:59.710Z,12.27
2023-05-20T06:05:33.949Z,12.38
2023-05-20T06:08:02.248Z,13.27
2023-05-20T06:10:31.242Z,12.07
2023-05-20T06:12:58.618Z,12.18
2023-05-20T06:15:27.343Z,12.50
2023-05-20T06:17:55.002Z,13.10
2023-05-20T06:20:22.392Z,11.45
2023-05-20T06:22:49.769Z,13.63
2023-05-20T06:25:17.206Z,12.00
2023-05-20T06:27:45.371Z,14.55
2023-05-20T06:30:16.651Z,13.37
2023-05-20T06:32:44.298Z,12.70
2023-05-20T06:35:12.273Z,12.23
2023-05-20T06:37:39.800Z,13.65
2023-05-20T06:40:07.941Z,11.60
2023-05-20T06:42:36.459Z,11.27
2023-05-20T06:45:05.619Z,11.75
2023-05-20T06:47:38.113Z,12.30
2023-05-20T06:50:06.344Z,10.30
2023-05-20T06:52:33.616Z,11.63
2023-05-20T06:55:00.889Z,16.90
2023-05-20T06:57:28.261Z,12.10
2023-05-20T06:59:56.708Z,11.75
2023-05-20T07:02:26.314Z,12.15
2023-05-20T07:04:54.261Z,10.80
2023-05-20T07:07:21.687Z,13.27
2023-05-20T07:09:49.328Z,13.13
2023-05-20T07:12:16.779Z,11.50
2023-05-20T07:14:44.165Z,12.20
2023-05-20T07:17:11.958Z,13.15
2023-05-20T07:19:39.688Z,13.48
2023-05-20T07:22:07.013Z,11.45
2023-05-20T07:24:35.755Z,12.48
2023-05-20T07:27:05.235Z,15.65
2023-05-20T07:29:32.679Z,11.88
2023-05-20T07:32:00.366Z,12.70
2023-05-20T07:34:28.089Z,13.52
2023-05-20T07:36:55.497Z,12.55
2023-05-20T07:39:23.019Z,11.98
2023-05-20T07:41:50.627Z,13.27
2023-05-20T07:44:19.221Z,13.85
2023-05-20T07:46:49.564Z,11.10
2023-05-20T07:49:17.067Z,13.00
2023-05-20T07:51:46.640Z,13.50
2023-05-20T07:54:15.680Z,14.43
2023-05-20T07:56:44.985Z,11.38
2023-05-20T07:59:12.393Z,13.50
2023-05-20T08:01:43.790Z,13.88
2023-05-20T08:04:12.646Z,11.80
2023-05-20T08:06:41.431Z,10.27
2023-05-20T08:09:12.754Z,12.20
2023-05-20T08:11:47.373Z,13.55
2023-05-20T08:14:15.236Z,11.63
2023-05-20T08:16:45.008Z,14.82
2023-05-20T08:19:12.722Z,12.65
2023-05-20T08:21:40.120Z,12.40
2023-05-20T08:24:08.163Z,12.32
2023-05-20T08:26:37.238Z,10.80
2023-05-20T08:29:04.755Z,11.85
2023-05-20T08:31:32.813Z,10.85
2023-05-20T08:34:00.899Z,11.75
2023-05-20T08:36:28.538Z,16.23
2023-05-20T08:38:56.533Z,11.52
2023-05-20T08:41:24.981Z,11.48
2023-05-20T08:43:54.458Z,11.02
2023-05-20T08:46:22.786Z,10.50
2023-05-20T08:48:50.598Z,10.60
2023-05-20T08:51:23.852Z,11.52
2023-05-20T08:53:51.842Z,13.07
2023-05-20T08:56:20.112Z,11.43
2023-05-20T08:58:47.550Z,12.25
2023-05-20T09:01:14.967Z,10.63
2023-05-20T09:03:43.485Z,10.90
2023-05-20T09:06:16.905Z,10.43
2023-05-20T09:08:44.840Z,12.68
2023-05-20T09:11:12.862Z,12.68
2023-05-20T09:13:40.269Z,11.73
2023-05-20T09:16:09.880Z,10.35
2023-05-20T09:18:41.232Z,11.65
2023-05-20T09:21:12.281Z,11.95
2023-05-20T09:23:39.574Z,12.07
2023-05-20T09:26:07.097Z,13.40
2023-05-20T09:28:36.369Z,13.70
2023-05-20T09:31:05.917Z,13.07
2023-05-20T09:33:35.144Z,12.35
2023-05-20T09:36:09.908Z,13.25
2023-05-20T09:38:39.669Z,11.25
2023-05-20T09:41:15.698Z,10.60
2023-05-20T09:43:43.180Z,11.85
2023-05-20T09:46:11.489Z,11.15
2023-05-20T09:48:39.946Z,14.20
2023-05-20T09:51:08.285Z,11.18
2023-05-20T09:53:36.768Z,10.95
2023-05-20T09:56:04.522Z,12.52
2023-05-20T09:58:36.016Z,15.23
2023-05-20T10:01:03.660Z,12.13
2023-05-20T10:03:32.319Z,11.05
2023-05-20T10:06:02.719Z,11.65
2023-05-20T10:08:36.081Z,14.82
2023-05-20T10:11:36.907Z,11.45
2023-05-20T10:14:16.069Z,12.50
2023-05-20T10:16:54.477Z,11.38
2023-05-20T10:19:30.367Z,11.70
2023-05-20T10:22:01.995Z,12.73
2023-05-20T10:27:03.712Z,11.13
2023-05-20T10:29:42.641Z,11.55
2023-05-20T10:32:09.933Z,10.70
2023-05-20T10:34:51.497Z,9.93
2023-05-20T10:37:26.116Z,10.02
2023-05-20T10:40:03.320Z,15.75
2023-05-20T10:42:30.633Z,10.75
2023-05-20T10:44:58.010Z,11.23
2023-05-20T10:47:26.482Z,10.10
2023-05-20T10:49:54.127Z,10.02
2023-05-20T10:52:21.739Z,11.68
2023-05-20T10:54:59.750Z,11.73
2023-05-20T10:57:28.807Z,11.00
2023-05-20T10:59:56.440Z,10.25
2023-05-20T11:02:27.254Z,11.23
2023-05-20T11:04:58.506Z,10.07
2023-05-20T11:07:31.568Z,9.75
2023-05-20T11:09:59.555Z,10.02
2023-05-20T11:12:29.012Z,10.85
2023-05-20T11:14:56.339Z,10.60
2023-05-20T11:17:23.727Z,12.07
2023-05-20T11:19:51.196Z,10.90
2023-05-20T11:22:18.577Z,12.30
2023-05-20T11:24:46.818Z,11.95
2023-05-20T11:27:14.339Z,11.15
2023-05-20T11:29:42.479Z,11.07
2023-05-20T11:32:09.842Z,10.60
2023-05-20T11:34:38.444Z,11.85
2023-05-20T11:37:10.499Z,10.50
2023-05-20T11:39:38.122Z,11.38
2023-05-20T11:42:06.487Z,10.90
2023-05-20T11:44:34.319Z,12.30
2023-05-20T11:47:03.453Z,10.52
2023-05-20T11:49:31.293Z,11.05
2023-05-20T11:51:58.905Z,10.95
2023-05-20T11:54:26.411Z,10.82
2023-05-20T11:56:55.282Z,11.43
2023-05-20T11:59:25.091Z,11.65
2023-05-20T12:01:52.541Z,10.82
2023-05-20T12:04:20.114Z,10.18
2023-05-20T12:06:51.188Z,13.88
2023-05-20T12:09:18.522Z,12.65
2023-05-20T12:11:45.918Z,13.00
2023-05-20T12:14:13.389Z,12.02
2023-05-20T12:16:40.888Z,11.50
2023-05-20T12:19:09.528Z,11.43
2023-05-20T12:21:36.873Z,11.00
2023-05-20T12:24:07.094Z,10.82
2023-05-20T12:26:35.645Z,12.85
2023-05-20T12:29:03.103Z,12.32
2023-05-20T12:31:33.019Z,10.50
2023-05-20T12:34:01.935Z,12.70
2023-05-20T12:36:29.231Z,12.20
2023-05-20T12:38:56.763Z,11.32
2023-05-20T12:41:24.193Z,10.88
2023-05-20T12:43:51.631Z,10.70
2023-05-20T12:46:19.140Z,11.82
2023-05-20T12:48:46.452Z,11.82
2023-05-20T12:51:13.758Z,12.57
2023-05-20T12:53:41.090Z,10.45
2023-05-20T12:56:08.824Z,10.50
2023-05-20T12:58:36.591Z,11.70
2023-05-20T13:01:03.966Z,11.20
2023-05-20T13:03:31.477Z,13.90
2023-05-20T13:05:59.531Z,12.57
2023-05-20T13:08:28.700Z,11.38
2023-05-20T13:10:56.510Z,11.50
2023-05-20T13:13:24.553Z,12.95
2023-05-20T13:15:51.851Z,13.77
2023-05-20T13:18:19.661Z,10.65
2023-05-20T13:20:47.107Z,10.68
2023-05-20T13:23:14.502Z,13.63
2023-05-20T13:25:41.961Z,11.80
2023-05-20T13:28:09.895Z,11.90
2023-05-20T13:30:37.384Z,10.02
2023-05-20T13:33:05.091Z,11.52
2023-05-20T13:35:32.405Z,12.15
2023-05-20T13:37:59.911Z,12.27
2023-05-20T13:40:27.215Z,11.98
2023-05-20T13:42:54.680Z,11.88
2023-05-20T13:45:23.394Z,11.98
2023-05-20T13:47:50.889Z,11.02
2023-05-20T13:50:18.377Z,10.93
2023-05-20T13:52:45.718Z,10.85
2023-05-20T13:55:13.346Z,10.68
2023-05-20T13:57:40.659Z,10.95
2023-05-20T14:00:09.630Z,11.02
2023-05-20T14:02:36.946Z,10.10
2023-05-20T14:05:04.905Z,13.85
2023-05-20T14:07:32.213Z,12.05
2023-05-20T14:09:59.441Z,11.52
2023-05-20T14:12:26.936Z,12.35
2023-05-20T14:14:54.235Z,13.45
2023-05-20T14:17:21.505Z,10.90
2023-05-20T14:19:49.083Z,13.35
2023-05-20T14:22:16.457Z,11.18
2023-05-20T14:24:43.868Z,12.15
2023-05-20T14:27:11.668Z,12.52
2023-05-20T14:29:38.895Z,12.65
2023-05-20T14:32:06.687Z,11.23
2023-05-20T14:34:33.885Z,13.85
2023-05-20T14:37:07.652Z,20.15
2023-05-20T14:39:35.150Z,12.07
2023-05-20T14:42:03.290Z,10.68
2023-05-20T14:44:31.232Z,12.32
2023-05-20T14:46:58.748Z,12.15
2023-05-20T14:49:26.406Z,10.82
2023-05-20T14:51:53.714Z,11.13
2023-05-20T14:54:25.164Z,10.45
2023-05-20T14:56:52.638Z,10.68
2023-05-20T14:59:20.028Z,9.80
2023-05-20T15:01:47.307Z,10.88
2023-05-20T15:04:14.793Z,9.88
2023-05-20T15:06:42.298Z,10.30
2023-05-20T15:09:10.234Z,9.50
2023-05-20T15:11:37.738Z,10.75
2023-05-20T15:14:05.098Z,11.38
2023-05-20T15:16:32.569Z,9.50
2023-05-20T15:18:59.928Z,9.80
2023-05-20T15:21:27.335Z,9.35
2023-05-20T15:23:54.741Z,9.23
2023-05-20T15:26:22.112Z,9.70
2023-05-20T15:28:49.454Z,8.95
2023-05-20T15:31:17.045Z,11.10
2023-05-20T15:33:44.573Z,14.13
2023-05-20T15:36:11.932Z,11.15
2023-05-20T15:38:39.208Z,9.10
2023-05-20T15:41:08.170Z,9.07
2023-05-20T15:43:35.846Z,9.73
2023-05-20T15:46:03.163Z,10.10
2023-05-20T15:48:30.438Z,9.13
2023-05-20T15:50:57.735Z,9.63
2023-05-20T15:53:24.961Z,9.80
2023-05-20T15:55:52.544Z,10.20
2023-05-20T15:58:20.096Z,10.80
2023-05-20T16:00:48.339Z,10.45
2023-05-20T16:03:16.702Z,9.40
2023-05-20T16:05:44.120Z,10.63
2023-05-20T16:08:11.564Z,8.75
2023-05-20T16:10:38.922Z,9.43
2023-05-20T16:13:06.226Z,9.93
2023-05-20T16:15:36.628Z,9.50
2023-05-20T16:18:04.639Z,9.70
2023-05-20T16:20:32.207Z,9.43
2023-05-20T16:22:59.776Z,10.18
2023-05-20T16:25:27.077Z,9.98
2023-05-20T16:27:54.301Z,10.43
2023-05-20T16:30:21.582Z,10.68
2023-05-20T16:32:49.062Z,12.07
2023-05-20T16:35:16.796Z,11.25
2023-05-20T16:37:44.751Z,12.02
2023-05-20T16:40:12.663Z,10.55
2023-05-20T16:42:40.053Z,10.88
2023-05-20T16:45:08.054Z,11.05
2023-05-20T16:47:37.120Z,11.15
2023-05-20T16:50:04.909Z,13.13
2023-05-20T16:52:34.775Z,13.43
2023-05-20T16:55:04.106Z,11.27
2023-05-20T16:57:32.811Z,11.10
2023-05-20T17:00:00.154Z,11.65
2023-05-20T17:02:27.784Z,10.68
2023-05-20T17:04:55.541Z,10.90
2023-05-20T17:07:22.979Z,10.80
2023-05-20T17:09:50.540Z,10.57
2023-05-20T17:12:17.859Z,10.95
2023-05-20T17:14:45.176Z,14.20
2023-05-20T17:17:14.188Z,11.82
2023-05-20T17:19:41.674Z,11.02
2023-05-20T17:22:09.209Z,11.45
2023-05-20T17:24:36.629Z,11.82
2023-05-20T17:27:06.243Z,15.20
2023-05-20T17:29:33.579Z,10.98
2023-05-20T17:32:01.264Z,17.05
2023-05-20T17:34:28.535Z,14.50
2023-05-20T17:36:57.292Z,13.90
2023-05-20T17:39:24.596Z,10.70
2023-05-20T17:41:52.088Z,13.68
2023-05-20T17:44:19.660Z,12.07
2023-05-20T17:46:47.162Z,11.18
2023-05-20T17:49:14.694Z,10.98
2023-05-20T17:51:42.518Z,12.43
2023-05-20T17:54:10.115Z,11.20
2023-05-20T17:56:37.565Z,10.82
2023-05-20T17:59:05.083Z,11.30
2023-05-20T18:01:33.466Z,10.65
2023-05-20T18:04:04.556Z,12.38
2023-05-20T18:06:34.850Z,11.38
2023-05-20T18:09:02.330Z,12.00
2023-05-20T18:11:32.079Z,15.45
2023-05-20T18:14:00.510Z,12.10
2023-05-20T18:16:29.700Z,14.45
2023-05-20T18:18:57.662Z,13.32
2023-05-20T18:21:25.749Z,13.88
2023-05-20T18:23:53.148Z,16.45
2023-05-20T18:26:21.859Z,16.38
2023-05-20T18:28:50.078Z,15.52
2023-05-20T18:31:17.495Z,17.23
2023-05-20T18:33:44.907Z,22.58
2023-05-20T18:36:12.975Z,20.77
2023-05-20T18:38:41.792Z,21.63
2023-05-20T18:41:09.397Z,15.43
2023-05-20T18:43:37.079Z,17.63
2023-05-20T18:46:04.732Z,13.38
2023-05-20T18:48:32.090Z,15.18
2023-05-20T18:50:59.427Z,21.58
2023-05-20T18:53:26.826Z,15.27
2023-05-20T18:55:54.152Z,18.75
2023-05-20T18:58:21.873Z,15.27
2023-05-20T19:00:49.381Z,16.92
2023-05-20T19:03:17.195Z,17.48
2023-05-20T19:05:44.654Z,15.25
2023-05-20T19:08:11.961Z,15.43
2023-05-20T19:10:39.382Z,15.63
2023-05-20T19:13:06.667Z,13.93
2023-05-20T19:15:34.613Z,13.50
2023-05-20T19:18:02.171Z,13.13
2023-05-20T19:20:29.561Z,15.07
2023-05-20T19:22:56.917Z,16.48
2023-05-20T19:25:24.168Z,16.00
2023-05-20T19:27:51.832Z,21.75
2023-05-20T19:30:19.121Z,13.27
2023-05-20T19:32:46.556Z,16.38
2023-05-20T19:35:13.860Z,14.05
2023-05-20T19:37:41.273Z,14.85
2023-05-20T19:40:09.266Z,15.13
2023-05-20T19:42:36.576Z,15.45
2023-05-20T19:45:04.345Z,13.65
2023-05-20T19:47:31.706Z,15.43
2023-05-20T19:49:59.088Z,13.60
2023-05-20T19:52:26.532Z,16.60
2023-05-20T19:54:53.855Z,15.90
2023-05-20T19:57:21.257Z,16.13
2023-05-20T19:59:49.459Z,16.38
2023-05-20T20:02:17.831Z,14.90
2023-05-20T20:04:45.232Z,13.10
2023-05-20T20:07:12.707Z,16.42
2023-05-20T20:09:40.418Z,12.90
2023-05-20T20:12:08.016Z,14.10
2023-05-20T20:14:35.325Z,15.05
2023-05-20T20:17:03.417Z,14.50
2023-05-20T20:19:30.867Z,15.57
2023-05-20T20:21:58.450Z,14.20
2023-05-20T20:24:27.776Z,15.80
2023-05-20T20:26:58.367Z,14.10
2023-05-20T20:29:26.397Z,16.40
2023-05-20T20:31:54.564Z,20.35
2023-05-20T20:34:22.260Z,13.35
2023-05-20T20:36:50.782Z,14.38
2023-05-20T20:39:21.288Z,16.35
2023-05-20T20:41:53.090Z,14.52
2023-05-20T20:44:25.542Z,15.68
2023-05-20T20:46:54.834Z,13.73
2023-05-20T20:49:23.190Z,17.95
2023-05-20T20:51:51.077Z,17.35
2023-05-20T20:54:18.889Z,19.00
2023-05-20T20:56:47.213Z,16.02
2023-05-20T20:59:16.053Z,14.77
2023-05-20T21:01:44.895Z,14.98
2023-05-20T21:04:14.407Z,17.45
2023-05-20T21:06:42.834Z,15.32
2023-05-20T21:09:12.226Z,16.02
2023-05-20T21:11:45.620Z,13.82
2023-05-20T21:14:13.759Z,15.15
2023-05-20T21:16:44.572Z,16.02
2023-05-20T21:19:14.138Z,18.02
2023-05-20T21:21:43.202Z,12.40
2023-05-20T21:24:15.823Z,16.48
2023-05-20T21:26:44.122Z,15.50
2023-05-20T21:29:12.575Z,15.20
2023-05-20T21:31:44.837Z,14.68
2023-05-20T21:34:13.781Z,14.80
2023-05-20T21:36:42.954Z,15.88
2023-05-20T21:39:11.509Z,14.73
2023-05-20T21:41:41.818Z,15.57
2023-05-20T21:44:09.957Z,13.77
2023-05-20T21:46:40.217Z,14.88
2023-05-20T21:49:08.473Z,17.48
2023-05-20T21:51:38.903Z,13.13
2023-05-20T21:54:07.381Z,14.40
2023-05-20T21:56:36.274Z,14.88
2023-05-20T21:59:04.434Z,13.65
2023-05-20T22:01:32.336Z,15.18
2023-05-20T22:04:02.615Z,15.63
2023-05-20T22:06:35.432Z,16.55
2023-05-20T22:09:03.759Z,15.05
2023-05-20T22:11:38.115Z,18.88
2023-05-20T22:14:06.206Z,20.60
2023-05-20T22:16:36.484Z,15.18
2023-05-20T22:19:06.199Z,14.80
2023-05-20T22:21:39.681Z,14.90
2023-05-20T22:24:15.582Z,15.68
2023-05-20T22:26:42.985Z,15.20
2023-05-20T22:29:10.444Z,15.48
2023-05-20T22:31:38.271Z,17.02
2023-05-20T22:34:05.796Z,17.95
2023-05-20T22:36:36.567Z,16.17
2023-05-20T22:39:04.949Z,15.02
2023-05-20T22:41:32.380Z,17.80
2023-05-20T22:43:59.725Z,14.85
2023-05-20T22:46:27.058Z,16.92
2023-05-20T22:48:55.671Z,14.90
2023-05-20T22:51:24.681Z,15.02
2023-05-20T22:53:52.601Z,14.85
2023-05-20T22:56:21.369Z,15.98
2023-05-20T22:58:48.743Z,17.70
2023-05-20T23:01:17.153Z,16.80
2023-05-20T23:03:45.090Z,16.35
2023-05-20T23:06:12.835Z,15.35
2023-05-20T23:08:43.032Z,16.45
2023-05-20T23:11:10.834Z,16.45
2023-05-20T23:13:38.296Z,14.98
2023-05-20T23:16:06.347Z,14.70
2023-05-20T23:18:33.848Z,19.33
2023-05-20T23:21:01.234Z,14.45
2023-05-20T23:23:31.570Z,14.45
2023-05-20T23:26:00.233Z,14.63
2023-05-20T23:28:27.589Z,15.05
2023-05-20T23:30:54.970Z,16.80
2023-05-20T23:33:25.417Z,15.85
2023-05-20T23:35:53.677Z,15.00
2023-05-20T23:38:21.654Z,16.35
2023-05-20T23:40:49.651Z,16.23
2023-05-20T23:43:17.153Z,13.70
2023-05-20T23:45:44.558Z,14.50
2023-05-20T23:48:13.459Z,14.52
2023-05-20T23:50:41.263Z,14.27
2023-05-20T23:53:08.711Z,16.48
2023-05-20T23:55:36.350Z,17.38
2023-05-20T23:58:03.869Z,15.27
